sensor_id;sensor_type;location;lat;lon;timestamp;temperature;humidity
15357;DHT22;7778;48.792;9.260;2022-12-16T00:00:39;-0.70;99.90
15357;DHT22;7778;48.792;9.260;2022-12-16T00:03:25;-0.70;99.90
15357;DHT22;7778;48.792;9.260;2022-12-16T00:06:10;-0.80;99.90
15357;DHT22;7778;48.792;9.260;2022-12-16T00:08:56;-0.80;99.90
15357;DHT22;7778;48.792;9.260;2022-12-16T00:11:42;-0.70;99.90
15357;DHT22;7778;48.792;9.260;2022-12-16T00:14:28;-0.70;99.90
15357;DHT22;7778;48.792;9.260;2022-12-16T00:17:14;-0.80;99.90
15357;DHT22;7778;48.792;9.260;2022-12-16T00:19:59;-0.80;99.90
15357;DHT22;7778;48.792;9.260;2022-12-16T00:22:46;-0.70;99.90
15357;DHT22;7778;48.792;9.260;2022-12-16T00:25:31;-0.70;99.90
15357;DHT22;7778;48.792;9.260;2022-12-16T00:28:18;-0.70;99.90
15357;DHT22;7778;48.792;9.260;2022-12-16T00:31:06;-0.60;99.90
15357;DHT22;7778;48.792;9.260;2022-12-16T00:33:55;-0.70;99.90
15357;DHT22;7778;48.792;9.260;2022-12-16T00:36:41;-0.70;99.90
15357;DHT22;7778;48.792;9.260;2022-12-16T00:39:26;-0.70;99.90
15357;DHT22;7778;48.792;9.260;2022-12-16T00:42:11;-0.60;99.90
15357;DHT22;7778;48.792;9.260;2022-12-16T00:44:58;-0.60;99.90
15357;DHT22;7778;48.792;9.260;2022-12-16T00:47:43;-0.70;99.90
15357;DHT22;7778;48.792;9.260;2022-12-16T00:50:29;-0.90;99.90
15357;DHT22;7778;48.792;9.260;2022-12-16T00:53:15;-1.00;99.90
15357;DHT22;7778;48.792;9.260;2022-12-16T00:56:02;-1.00;99.90
15357;DHT22;7778;48.792;9.260;2022-12-16T00:58:48;-1.00;99.90
15357;DHT22;7778;48.792;9.260;2022-12-16T01:01:36;-1.00;99.90
15357;DHT22;7778;48.792;9.260;2022-12-16T01:04:21;-1.00;99.90
15357;DHT22;7778;48.792;9.260;2022-12-16T01:07:09;-1.10;99.90
15357;DHT22;7778;48.792;9.260;2022-12-16T01:09:55;-1.00;99.90
15357;DHT22;7778;48.792;9.260;2022-12-16T01:12:40;-0.90;99.90
15357;DHT22;7778;48.792;9.260;2022-12-16T01:15:26;-0.90;99.90
15357;DHT22;7778;48.792;9.260;2022-12-16T01:18:13;-1.00;99.90
15357;DHT22;7778;48.792;9.260;2022-12-16T01:21:02;-1.00;99.90
15357;DHT22;7778;48.792;9.260;2022-12-16T01:23:48;-1.00;99.90
15357;DHT22;7778;48.792;9.260;2022-12-16T01:26:33;-1.00;99.90
15357;DHT22;7778;48.792;9.260;2022-12-16T01:29:19;-1.00;99.90
15357;DHT22;7778;48.792;9.260;2022-12-16T01:32:05;-1.00;99.90
15357;DHT22;7778;48.792;9.260;2022-12-16T01:34:53;-1.00;99.90
15357;DHT22;7778;48.792;9.260;2022-12-16T01:37:38;-1.00;99.90
15357;DHT22;7778;48.792;9.260;2022-12-16T01:40:24;-1.30;99.90
15357;DHT22;7778;48.792;9.260;2022-12-16T01:43:11;-1.20;99.90
15357;DHT22;7778;48.792;9.260;2022-12-16T01:46:00;-1.20;99.90
15357;DHT22;7778;48.792;9.260;2022-12-16T01:48:50;-1.10;99.90
15357;DHT22;7778;48.792;9.260;2022-12-16T01:51:41;-1.00;99.90
15357;DHT22;7778;48.792;9.260;2022-12-16T01:54:29;-1.00;99.90
15357;DHT22;7778;48.792;9.260;2022-12-16T01:57:20;-0.90;99.90
15357;DHT22;7778;48.792;9.260;2022-12-16T02:00:08;-0.80;99.90
15357;DHT22;7778;48.792;9.260;2022-12-16T02:02:56;-0.80;99.90
15357;DHT22;7778;48.792;9.260;2022-12-16T02:05:42;-0.80;99.90
15357;DHT22;7778;48.792;9.260;2022-12-16T02:08:30;-0.80;99.90
15357;DHT22;7778;48.792;9.260;2022-12-16T02:11:39;-0.80;99.90
15357;DHT22;7778;48.792;9.260;2022-12-16T02:14:47;-0.90;99.90
15357;DHT22;7778;48.792;9.260;2022-12-16T02:17:46;-1.00;99.90
15357;DHT22;7778;48.792;9.260;2022-12-16T02:21:04;-1.00;99.90
15357;DHT22;7778;48.792;9.260;2022-12-16T02:31:08;-1.00;99.90
15357;DHT22;7778;48.792;9.260;2022-12-16T02:34:09;-1.10;99.90
15357;DHT22;7778;48.792;9.260;2022-12-16T02:37:10;-1.30;99.90
15357;DHT22;7778;48.792;9.260;2022-12-16T02:40:00;-1.20;99.90
15357;DHT22;7778;48.792;9.260;2022-12-16T02:42:49;-1.10;99.90
15357;DHT22;7778;48.792;9.260;2022-12-16T02:45:36;-1.20;99.90
15357;DHT22;7778;48.792;9.260;2022-12-16T02:48:23;-1.20;99.90
15357;DHT22;7778;48.792;9.260;2022-12-16T02:51:08;-1.30;99.90
15357;DHT22;7778;48.792;9.260;2022-12-16T02:53:54;-1.30;99.90
15357;DHT22;7778;48.792;9.260;2022-12-16T02:56:48;-1.20;99.90
15357;DHT22;7778;48.792;9.260;2022-12-16T02:59:39;-1.10;99.90
15357;DHT22;7778;48.792;9.260;2022-12-16T03:02:34;-1.20;99.90
15357;DHT22;7778;48.792;9.260;2022-12-16T03:05:25;-1.30;99.90
15357;DHT22;7778;48.792;9.260;2022-12-16T03:08:16;-1.20;99.90
15357;DHT22;7778;48.792;9.260;2022-12-16T03:11:05;-1.10;99.90
15357;DHT22;7778;48.792;9.260;2022-12-16T03:13:54;-1.10;99.90
15357;DHT22;7778;48.792;9.260;2022-12-16T03:16:40;-1.00;99.90
15357;DHT22;7778;48.792;9.260;2022-12-16T03:19:28;-1.00;99.90
15357;DHT22;7778;48.792;9.260;2022-12-16T03:22:17;-1.00;99.90
15357;DHT22;7778;48.792;9.260;2022-12-16T03:25:06;-1.10;99.90
15357;DHT22;7778;48.792;9.260;2022-12-16T03:27:56;-1.00;99.90
15357;DHT22;7778;48.792;9.260;2022-12-16T03:30:47;-1.00;99.90
15357;DHT22;7778;48.792;9.260;2022-12-16T03:33:37;-0.80;99.90
15357;DHT22;7778;48.792;9.260;2022-12-16T03:36:26;-0.70;99.90
15357;DHT22;7778;48.792;9.260;2022-12-16T03:39:15;-0.70;99.90
15357;DHT22;7778;48.792;9.260;2022-12-16T03:42:03;-0.70;99.90
15357;DHT22;7778;48.792;9.260;2022-12-16T03:44:50;-0.60;99.90
15357;DHT22;7778;48.792;9.260;2022-12-16T03:47:36;-0.60;99.90
15357;DHT22;7778;48.792;9.260;2022-12-16T03:50:25;-0.60;99.90
15357;DHT22;7778;48.792;9.260;2022-12-16T03:53:14;-0.70;99.90
15357;DHT22;7778;48.792;9.260;2022-12-16T03:56:00;-0.70;99.90
15357;DHT22;7778;48.792;9.260;2022-12-16T03:58:46;-0.70;99.90
15357;DHT22;7778;48.792;9.260;2022-12-16T04:01:32;-0.70;99.90
15357;DHT22;7778;48.792;9.260;2022-12-16T04:04:18;-0.80;99.90
15357;DHT22;7778;48.792;9.260;2022-12-16T04:07:03;-1.00;99.90
15357;DHT22;7778;48.792;9.260;2022-12-16T04:10:06;-1.10;99.90
15357;DHT22;7778;48.792;9.260;2022-12-16T04:12:54;-1.20;99.90
15357;DHT22;7778;48.792;9.260;2022-12-16T04:16:03;-1.10;99.90
15357;DHT22;7778;48.792;9.260;2022-12-16T04:19:09;-1.20;99.90
15357;DHT22;7778;48.792;9.260;2022-12-16T04:22:21;-1.10;99.90
15357;DHT22;7778;48.792;9.260;2022-12-16T04:25:28;-1.10;99.90
15357;DHT22;7778;48.792;9.260;2022-12-16T04:28:17;-1.10;99.90
15357;DHT22;7778;48.792;9.260;2022-12-16T04:31:02;-1.00;99.90
15357;DHT22;7778;48.792;9.260;2022-12-16T04:33:48;-0.90;99.90
15357;DHT22;7778;48.792;9.260;2022-12-16T04:36:51;-1.00;99.90
15357;DHT22;7778;48.792;9.260;2022-12-16T04:39:55;-1.00;99.90
15357;DHT22;7778;48.792;9.260;2022-12-16T04:42:59;-1.20;99.90
15357;DHT22;7778;48.792;9.260;2022-12-16T04:46:04;-1.20;99.90
15357;DHT22;7778;48.792;9.260;2022-12-16T04:49:07;-1.30;99.90
15357;DHT22;7778;48.792;9.260;2022-12-16T04:52:11;-1.30;99.90
15357;DHT22;7778;48.792;9.260;2022-12-16T04:55:14;-1.20;99.90
15357;DHT22;7778;48.792;9.260;2022-12-16T04:58:18;-1.30;99.90
15357;DHT22;7778;48.792;9.260;2022-12-16T05:01:22;-1.30;99.90
15357;DHT22;7778;48.792;9.260;2022-12-16T05:04:26;-1.20;99.90
15357;DHT22;7778;48.792;9.260;2022-12-16T05:07:30;-1.20;99.90
15357;DHT22;7778;48.792;9.260;2022-12-16T05:10:33;-1.20;99.90
15357;DHT22;7778;48.792;9.260;2022-12-16T05:13:37;-1.10;99.90
15357;DHT22;7778;48.792;9.260;2022-12-16T05:16:42;-1.00;99.90
15357;DHT22;7778;48.792;9.260;2022-12-16T05:19:45;-0.90;99.90
15357;DHT22;7778;48.792;9.260;2022-12-16T05:22:49;-1.10;99.90
15357;DHT22;7778;48.792;9.260;2022-12-16T05:25:52;-1.10;99.90
15357;DHT22;7778;48.792;9.260;2022-12-16T05:28:56;-1.10;99.90
15357;DHT22;7778;48.792;9.260;2022-12-16T05:32:01;-1.10;99.90
15357;DHT22;7778;48.792;9.260;2022-12-16T05:35:05;-1.10;99.90
15357;DHT22;7778;48.792;9.260;2022-12-16T05:38:09;-1.10;99.90
15357;DHT22;7778;48.792;9.260;2022-12-16T05:41:12;-1.10;99.90
15357;DHT22;7778;48.792;9.260;2022-12-16T05:44:16;-1.20;99.90
15357;DHT22;7778;48.792;9.260;2022-12-16T05:47:21;-1.20;99.90
15357;DHT22;7778;48.792;9.260;2022-12-16T05:50:25;-1.20;99.90
15357;DHT22;7778;48.792;9.260;2022-12-16T05:53:28;-1.10;99.90
15357;DHT22;7778;48.792;9.260;2022-12-16T05:56:31;-1.00;99.90
15357;DHT22;7778;48.792;9.260;2022-12-16T05:59:35;-1.10;99.90
15357;DHT22;7778;48.792;9.260;2022-12-16T06:02:40;-1.10;99.90
15357;DHT22;7778;48.792;9.260;2022-12-16T06:05:43;-1.20;99.90
15357;DHT22;7778;48.792;9.260;2022-12-16T06:08:47;-1.10;99.90
15357;DHT22;7778;48.792;9.260;2022-12-16T06:11:50;-1.10;99.90
15357;DHT22;7778;48.792;9.260;2022-12-16T06:14:54;-1.20;99.90
15357;DHT22;7778;48.792;9.260;2022-12-16T06:18:07;-1.30;99.90
15357;DHT22;7778;48.792;9.260;2022-12-16T06:21:10;-1.30;99.90
15357;DHT22;7778;48.792;9.260;2022-12-16T06:24:14;-1.20;99.90
15357;DHT22;7778;48.792;9.260;2022-12-16T06:27:17;-1.20;99.90
15357;DHT22;7778;48.792;9.260;2022-12-16T06:30:21;-1.20;99.90
15357;DHT22;7778;48.792;9.260;2022-12-16T06:33:26;-1.20;99.90
15357;DHT22;7778;48.792;9.260;2022-12-16T06:36:29;-1.20;99.90
15357;DHT22;7778;48.792;9.260;2022-12-16T06:39:33;-1.20;99.90
15357;DHT22;7778;48.792;9.260;2022-12-16T06:42:39;-1.20;99.90
15357;DHT22;7778;48.792;9.260;2022-12-16T06:45:42;-1.20;99.90
15357;DHT22;7778;48.792;9.260;2022-12-16T06:48:47;-1.00;99.90
15357;DHT22;7778;48.792;9.260;2022-12-16T06:51:50;-0.90;99.90
15357;DHT22;7778;48.792;9.260;2022-12-16T06:54:54;-0.90;99.90
15357;DHT22;7778;48.792;9.260;2022-12-16T06:57:58;-0.90;99.90
15357;DHT22;7778;48.792;9.260;2022-12-16T07:01:02;-1.00;99.90
15357;DHT22;7778;48.792;9.260;2022-12-16T07:04:06;-1.20;99.90
15357;DHT22;7778;48.792;9.260;2022-12-16T07:07:10;-1.20;99.90
15357;DHT22;7778;48.792;9.260;2022-12-16T07:10:13;-1.30;99.90
15357;DHT22;7778;48.792;9.260;2022-12-16T07:13:17;-1.20;99.90
15357;DHT22;7778;48.792;9.260;2022-12-16T07:16:20;-1.30;99.90
15357;DHT22;7778;48.792;9.260;2022-12-16T07:19:25;-1.20;99.90
15357;DHT22;7778;48.792;9.260;2022-12-16T07:22:29;-1.20;99.90
15357;DHT22;7778;48.792;9.260;2022-12-16T07:25:32;-1.20;99.90
15357;DHT22;7778;48.792;9.260;2022-12-16T07:28:36;-1.10;99.90
15357;DHT22;7778;48.792;9.260;2022-12-16T07:31:39;-1.10;99.90
15357;DHT22;7778;48.792;9.260;2022-12-16T07:34:44;-1.10;99.90
15357;DHT22;7778;48.792;9.260;2022-12-16T07:37:48;-1.10;99.90
15357;DHT22;7778;48.792;9.260;2022-12-16T07:40:52;-1.10;99.90
15357;DHT22;7778;48.792;9.260;2022-12-16T07:43:55;-1.10;99.90
15357;DHT22;7778;48.792;9.260;2022-12-16T07:46:58;-1.10;99.90
15357;DHT22;7778;48.792;9.260;2022-12-16T07:50:04;-1.20;99.90
15357;DHT22;7778;48.792;9.260;2022-12-16T07:53:08;-1.10;99.90
15357;DHT22;7778;48.792;9.260;2022-12-16T07:56:11;-1.10;99.90
15357;DHT22;7778;48.792;9.260;2022-12-16T07:59:15;-1.00;99.90
15357;DHT22;7778;48.792;9.260;2022-12-16T08:02:23;-1.00;99.90
15357;DHT22;7778;48.792;9.260;2022-12-16T08:05:28;-1.20;99.90
15357;DHT22;7778;48.792;9.260;2022-12-16T08:08:31;-1.00;99.90
15357;DHT22;7778;48.792;9.260;2022-12-16T08:11:35;-1.10;99.90
15357;DHT22;7778;48.792;9.260;2022-12-16T08:14:39;-1.10;99.90
15357;DHT22;7778;48.792;9.260;2022-12-16T08:17:47;-1.10;99.90
15357;DHT22;7778;48.792;9.260;2022-12-16T08:20:52;-1.00;99.90
15357;DHT22;7778;48.792;9.260;2022-12-16T08:23:56;-1.00;99.90
15357;DHT22;7778;48.792;9.260;2022-12-16T08:26:59;-0.70;99.90
15357;DHT22;7778;48.792;9.260;2022-12-16T08:30:04;-0.80;99.90
15357;DHT22;7778;48.792;9.260;2022-12-16T08:33:08;-0.80;99.90
15357;DHT22;7778;48.792;9.260;2022-12-16T08:36:13;-0.70;99.90
15357;DHT22;7778;48.792;9.260;2022-12-16T08:39:16;-0.60;99.90
15357;DHT22;7778;48.792;9.260;2022-12-16T08:42:20;-0.70;99.90
15357;DHT22;7778;48.792;9.260;2022-12-16T08:45:29;-0.80;99.90
15357;DHT22;7778;48.792;9.260;2022-12-16T08:48:32;-0.60;99.90
15357;DHT22;7778;48.792;9.260;2022-12-16T08:51:37;-0.60;99.90
15357;DHT22;7778;48.792;9.260;2022-12-16T08:54:41;-0.50;99.90
15357;DHT22;7778;48.792;9.260;2022-12-16T08:57:52;-0.60;99.90
15357;DHT22;7778;48.792;9.260;2022-12-16T09:00:55;-0.60;99.90
15357;DHT22;7778;48.792;9.260;2022-12-16T09:03:58;-0.60;99.90
15357;DHT22;7778;48.792;9.260;2022-12-16T09:07:04;-0.60;99.90
15357;DHT22;7778;48.792;9.260;2022-12-16T09:10:07;-0.70;99.90
15357;DHT22;7778;48.792;9.260;2022-12-16T09:13:12;-0.70;99.90
15357;DHT22;7778;48.792;9.260;2022-12-16T09:16:17;-0.60;99.90
15357;DHT22;7778;48.792;9.260;2022-12-16T09:19:21;-0.50;99.90
15357;DHT22;7778;48.792;9.260;2022-12-16T09:22:26;-0.30;99.90
15357;DHT22;7778;48.792;9.260;2022-12-16T09:25:29;-0.30;99.90
15357;DHT22;7778;48.792;9.260;2022-12-16T09:28:33;-0.30;99.90
15357;DHT22;7778;48.792;9.260;2022-12-16T09:31:36;-0.30;99.90
15357;DHT22;7778;48.792;9.260;2022-12-16T09:34:40;-0.30;99.90
15357;DHT22;7778;48.792;9.260;2022-12-16T09:37:46;-0.10;99.90
15357;DHT22;7778;48.792;9.260;2022-12-16T09:40:49;0.00;99.90
15357;DHT22;7778;48.792;9.260;2022-12-16T09:44:01;0.00;99.90
15357;DHT22;7778;48.792;9.260;2022-12-16T09:47:19;-0.10;99.90
15357;DHT22;7778;48.792;9.260;2022-12-16T09:50:30;-0.10;99.90
15357;DHT22;7778;48.792;9.260;2022-12-16T09:53:35;0.00;99.90
15357;DHT22;7778;48.792;9.260;2022-12-16T09:56:40;-0.10;99.90
15357;DHT22;7778;48.792;9.260;2022-12-16T09:59:50;-0.10;99.90
15357;DHT22;7778;48.792;9.260;2022-12-16T10:02:57;0.00;99.90
15357;DHT22;7778;48.792;9.260;2022-12-16T10:06:06;0.10;99.90
15357;DHT22;7778;48.792;9.260;2022-12-16T10:09:19;0.00;99.90
15357;DHT22;7778;48.792;9.260;2022-12-16T10:12:35;-0.10;99.90
15357;DHT22;7778;48.792;9.260;2022-12-16T10:15:48;0.00;99.90
15357;DHT22;7778;48.792;9.260;2022-12-16T10:19:03;0.10;99.90
15357;DHT22;7778;48.792;9.260;2022-12-16T10:22:16;0.10;99.90
15357;DHT22;7778;48.792;9.260;2022-12-16T10:25:29;0.20;99.90
15357;DHT22;7778;48.792;9.260;2022-12-16T10:28:43;0.20;99.90
15357;DHT22;7778;48.792;9.260;2022-12-16T10:31:47;0.30;99.90
15357;DHT22;7778;48.792;9.260;2022-12-16T10:34:51;0.10;99.90
15357;DHT22;7778;48.792;9.260;2022-12-16T10:37:57;0.00;99.90
15357;DHT22;7778;48.792;9.260;2022-12-16T10:41:02;0.10;99.90
15357;DHT22;7778;48.792;9.260;2022-12-16T10:44:16;0.10;99.90
15357;DHT22;7778;48.792;9.260;2022-12-16T10:47:24;0.20;99.90
15357;DHT22;7778;48.792;9.260;2022-12-16T10:50:28;0.30;99.90
15357;DHT22;7778;48.792;9.260;2022-12-16T10:53:33;0.30;99.90
15357;DHT22;7778;48.792;9.260;2022-12-16T10:56:48;0.40;99.90
15357;DHT22;7778;48.792;9.260;2022-12-16T11:00:09;0.30;99.90
15357;DHT22;7778;48.792;9.260;2022-12-16T11:03:19;0.10;99.90
15357;DHT22;7778;48.792;9.260;2022-12-16T11:06:25;0.10;99.90
15357;DHT22;7778;48.792;9.260;2022-12-16T11:09:32;0.10;99.90
15357;DHT22;7778;48.792;9.260;2022-12-16T11:12:37;0.00;99.90
15357;DHT22;7778;48.792;9.260;2022-12-16T11:15:44;0.10;99.90
15357;DHT22;7778;48.792;9.260;2022-12-16T11:18:48;0.10;99.90
15357;DHT22;7778;48.792;9.260;2022-12-16T11:22:05;0.20;99.90
15357;DHT22;7778;48.792;9.260;2022-12-16T11:25:15;0.30;99.90
15357;DHT22;7778;48.792;9.260;2022-12-16T11:28:21;0.50;99.90
15357;DHT22;7778;48.792;9.260;2022-12-16T11:31:25;0.60;99.90
15357;DHT22;7778;48.792;9.260;2022-12-16T11:34:28;0.70;99.90
15357;DHT22;7778;48.792;9.260;2022-12-16T11:37:33;0.80;99.90
15357;DHT22;7778;48.792;9.260;2022-12-16T11:40:37;0.70;99.90
15357;DHT22;7778;48.792;9.260;2022-12-16T11:43:51;0.60;99.90
15357;DHT22;7778;48.792;9.260;2022-12-16T11:46:56;0.60;99.90
15357;DHT22;7778;48.792;9.260;2022-12-16T11:49:59;0.60;99.90
15357;DHT22;7778;48.792;9.260;2022-12-16T11:53:21;0.80;99.90
15357;DHT22;7778;48.792;9.260;2022-12-16T11:56:33;0.90;99.90
15357;DHT22;7778;48.792;9.260;2022-12-16T11:59:41;1.10;99.90
15357;DHT22;7778;48.792;9.260;2022-12-16T12:02:51;1.20;99.90
15357;DHT22;7778;48.792;9.260;2022-12-16T12:06:03;1.20;99.90
15357;DHT22;7778;48.792;9.260;2022-12-16T12:09:12;1.20;99.90
15357;DHT22;7778;48.792;9.260;2022-12-16T12:12:25;1.30;99.90
15357;DHT22;7778;48.792;9.260;2022-12-16T12:15:39;1.40;99.90
15357;DHT22;7778;48.792;9.260;2022-12-16T12:18:49;1.50;99.90
15357;DHT22;7778;48.792;9.260;2022-12-16T12:22:09;1.30;99.90
15357;DHT22;7778;48.792;9.260;2022-12-16T12:25:21;1.20;99.90
15357;DHT22;7778;48.792;9.260;2022-12-16T12:28:36;1.00;99.90
15357;DHT22;7778;48.792;9.260;2022-12-16T12:31:52;0.90;99.90
15357;DHT22;7778;48.792;9.260;2022-12-16T12:35:03;0.90;99.90
15357;DHT22;7778;48.792;9.260;2022-12-16T12:38:17;0.80;99.90
15357;DHT22;7778;48.792;9.260;2022-12-16T12:41:27;0.60;99.90
15357;DHT22;7778;48.792;9.260;2022-12-16T12:44:41;0.50;99.90
15357;DHT22;7778;48.792;9.260;2022-12-16T12:47:57;0.50;99.90
15357;DHT22;7778;48.792;9.260;2022-12-16T12:51:14;0.40;99.90
15357;DHT22;7778;48.792;9.260;2022-12-16T12:54:29;0.20;99.90
15357;DHT22;7778;48.792;9.260;2022-12-16T12:57:37;0.00;99.90
15357;DHT22;7778;48.792;9.260;2022-12-16T13:00:46;0.00;99.90
15357;DHT22;7778;48.792;9.260;2022-12-16T13:04:01;0.00;99.90
15357;DHT22;7778;48.792;9.260;2022-12-16T13:07:09;-0.10;99.90
15357;DHT22;7778;48.792;9.260;2022-12-16T13:10:35;-0.10;99.90
15357;DHT22;7778;48.792;9.260;2022-12-16T13:13:39;0.00;99.90
15357;DHT22;7778;48.792;9.260;2022-12-16T13:17:04;-0.10;99.90
15357;DHT22;7778;48.792;9.260;2022-12-16T13:20:36;0.00;99.90
15357;DHT22;7778;48.792;9.260;2022-12-16T13:23:41;0.00;99.90
15357;DHT22;7778;48.792;9.260;2022-12-16T13:26:59;0.00;99.90
15357;DHT22;7778;48.792;9.260;2022-12-16T13:30:18;0.00;99.90
15357;DHT22;7778;48.792;9.260;2022-12-16T13:33:26;0.00;99.90
15357;DHT22;7778;48.792;9.260;2022-12-16T13:36:34;0.10;99.90
15357;DHT22;7778;48.792;9.260;2022-12-16T13:39:38;-0.10;99.90
15357;DHT22;7778;48.792;9.260;2022-12-16T13:42:53;-0.20;99.90
15357;DHT22;7778;48.792;9.260;2022-12-16T13:46:14;-0.20;99.90
15357;DHT22;7778;48.792;9.260;2022-12-16T13:49:39;-0.20;99.90
15357;DHT22;7778;48.792;9.260;2022-12-16T13:52:54;-0.20;99.90
15357;DHT22;7778;48.792;9.260;2022-12-16T13:56:00;-0.30;99.90
15357;DHT22;7778;48.792;9.260;2022-12-16T13:59:05;-0.30;99.90
15357;DHT22;7778;48.792;9.260;2022-12-16T14:02:23;-0.40;99.90
15357;DHT22;7778;48.792;9.260;2022-12-16T14:05:32;-0.30;99.90
15357;DHT22;7778;48.792;9.260;2022-12-16T14:08:40;-0.40;99.90
15357;DHT22;7778;48.792;9.260;2022-12-16T14:11:47;-0.50;99.90
15357;DHT22;7778;48.792;9.260;2022-12-16T14:15:01;-0.50;99.90
15357;DHT22;7778;48.792;9.260;2022-12-16T14:18:15;-0.50;99.90
15357;DHT22;7778;48.792;9.260;2022-12-16T14:21:30;-0.50;99.90
15357;DHT22;7778;48.792;9.260;2022-12-16T14:24:38;-0.50;99.90
15357;DHT22;7778;48.792;9.260;2022-12-16T14:27:42;-0.50;99.90
15357;DHT22;7778;48.792;9.260;2022-12-16T14:30:46;-0.50;99.90
15357;DHT22;7778;48.792;9.260;2022-12-16T14:33:53;-0.40;99.90
15357;DHT22;7778;48.792;9.260;2022-12-16T14:36:56;-0.30;99.90
15357;DHT22;7778;48.792;9.260;2022-12-16T14:40:03;-0.30;99.90
15357;DHT22;7778;48.792;9.260;2022-12-16T14:43:11;-0.20;99.90
15357;DHT22;7778;48.792;9.260;2022-12-16T14:46:23;-0.40;99.90
15357;DHT22;7778;48.792;9.260;2022-12-16T14:49:29;-0.60;99.90
15357;DHT22;7778;48.792;9.260;2022-12-16T14:52:36;-0.50;99.90
15357;DHT22;7778;48.792;9.260;2022-12-16T14:55:42;-0.40;99.90
15357;DHT22;7778;48.792;9.260;2022-12-16T14:58:45;-0.40;99.90
15357;DHT22;7778;48.792;9.260;2022-12-16T15:01:48;-0.30;99.90
15357;DHT22;7778;48.792;9.260;2022-12-16T15:04:51;-0.30;99.90
15357;DHT22;7778;48.792;9.260;2022-12-16T15:07:55;-0.20;99.90
15357;DHT22;7778;48.792;9.260;2022-12-16T15:11:00;-0.40;99.90
15357;DHT22;7778;48.792;9.260;2022-12-16T15:14:05;-0.70;99.90
15357;DHT22;7778;48.792;9.260;2022-12-16T15:17:19;-0.60;99.90
15357;DHT22;7778;48.792;9.260;2022-12-16T15:20:25;-0.60;99.90
15357;DHT22;7778;48.792;9.260;2022-12-16T15:23:43;-0.40;99.90
15357;DHT22;7778;48.792;9.260;2022-12-16T15:26:48;-0.60;99.90
15357;DHT22;7778;48.792;9.260;2022-12-16T15:29:52;-0.60;99.90
15357;DHT22;7778;48.792;9.260;2022-12-16T15:33:16;-0.60;99.90
15357;DHT22;7778;48.792;9.260;2022-12-16T15:36:33;-0.60;99.90
15357;DHT22;7778;48.792;9.260;2022-12-16T15:39:41;-0.60;99.90
15357;DHT22;7778;48.792;9.260;2022-12-16T15:42:49;-0.60;99.90
15357;DHT22;7778;48.792;9.260;2022-12-16T15:45:53;-0.50;99.90
15357;DHT22;7778;48.792;9.260;2022-12-16T15:48:57;-0.50;99.90
15357;DHT22;7778;48.792;9.260;2022-12-16T15:52:00;-0.60;99.90
15357;DHT22;7778;48.792;9.260;2022-12-16T15:55:29;-0.60;99.90
15357;DHT22;7778;48.792;9.260;2022-12-16T15:58:35;-0.50;99.90
15357;DHT22;7778;48.792;9.260;2022-12-16T16:01:42;-0.50;99.90
15357;DHT22;7778;48.792;9.260;2022-12-16T16:04:45;-0.50;99.90
15357;DHT22;7778;48.792;9.260;2022-12-16T16:08:04;-0.60;99.90
15357;DHT22;7778;48.792;9.260;2022-12-16T16:11:07;-0.60;99.90
15357;DHT22;7778;48.792;9.260;2022-12-16T16:14:12;-0.60;99.90
15357;DHT22;7778;48.792;9.260;2022-12-16T16:17:21;-0.70;99.90
15357;DHT22;7778;48.792;9.260;2022-12-16T16:20:24;-0.70;99.90
15357;DHT22;7778;48.792;9.260;2022-12-16T16:23:28;-0.60;99.90
15357;DHT22;7778;48.792;9.260;2022-12-16T16:26:32;-0.60;99.90
15357;DHT22;7778;48.792;9.260;2022-12-16T16:29:33;-0.70;99.90
15357;DHT22;7778;48.792;9.260;2022-12-16T16:32:37;-0.70;99.90
15357;DHT22;7778;48.792;9.260;2022-12-16T16:35:40;-1.00;99.90
15357;DHT22;7778;48.792;9.260;2022-12-16T16:38:44;-1.10;99.90
15357;DHT22;7778;48.792;9.260;2022-12-16T16:41:46;-1.10;99.90
15357;DHT22;7778;48.792;9.260;2022-12-16T16:44:51;-1.10;99.90
15357;DHT22;7778;48.792;9.260;2022-12-16T16:48:02;-0.80;99.90
15357;DHT22;7778;48.792;9.260;2022-12-16T16:51:08;-0.90;99.90
15357;DHT22;7778;48.792;9.260;2022-12-16T16:54:12;-0.80;99.90
15357;DHT22;7778;48.792;9.260;2022-12-16T16:57:15;-0.70;99.90
15357;DHT22;7778;48.792;9.260;2022-12-16T17:00:20;-0.70;99.90
15357;DHT22;7778;48.792;9.260;2022-12-16T17:03:24;-0.80;99.90
15357;DHT22;7778;48.792;9.260;2022-12-16T17:06:27;-0.80;99.90
15357;DHT22;7778;48.792;9.260;2022-12-16T17:09:31;-0.80;99.90
15357;DHT22;7778;48.792;9.260;2022-12-16T17:12:34;-1.00;99.90
15357;DHT22;7778;48.792;9.260;2022-12-16T17:15:40;-1.00;99.90
15357;DHT22;7778;48.792;9.260;2022-12-16T17:18:44;-0.90;99.90
15357;DHT22;7778;48.792;9.260;2022-12-16T17:21:47;-0.90;99.90
15357;DHT22;7778;48.792;9.260;2022-12-16T17:24:55;-0.90;99.90
15357;DHT22;7778;48.792;9.260;2022-12-16T17:27:59;-0.90;99.90
15357;DHT22;7778;48.792;9.260;2022-12-16T17:31:04;-0.90;99.90
15357;DHT22;7778;48.792;9.260;2022-12-16T17:34:08;-1.00;99.90
15357;DHT22;7778;48.792;9.260;2022-12-16T17:37:12;-1.00;99.90
15357;DHT22;7778;48.792;9.260;2022-12-16T17:40:15;-1.00;99.90
15357;DHT22;7778;48.792;9.260;2022-12-16T17:43:18;-1.10;99.90
15357;DHT22;7778;48.792;9.260;2022-12-16T17:46:26;-1.00;99.90
15357;DHT22;7778;48.792;9.260;2022-12-16T17:49:29;-0.90;99.90
15357;DHT22;7778;48.792;9.260;2022-12-16T17:52:33;-0.80;99.90
15357;DHT22;7778;48.792;9.260;2022-12-16T17:55:37;-0.80;99.90
15357;DHT22;7778;48.792;9.260;2022-12-16T17:58:40;-0.70;99.90
15357;DHT22;7778;48.792;9.260;2022-12-16T18:01:45;-0.70;99.90
15357;DHT22;7778;48.792;9.260;2022-12-16T18:04:49;-0.70;99.90
15357;DHT22;7778;48.792;9.260;2022-12-16T18:07:52;-0.70;99.90
15357;DHT22;7778;48.792;9.260;2022-12-16T18:10:56;-0.70;99.90
15357;DHT22;7778;48.792;9.260;2022-12-16T18:14:00;-0.70;99.90
15357;DHT22;7778;48.792;9.260;2022-12-16T18:17:05;-0.70;99.90
15357;DHT22;7778;48.792;9.260;2022-12-16T18:20:09;-0.70;99.90
15357;DHT22;7778;48.792;9.260;2022-12-16T18:23:12;-0.70;99.90
15357;DHT22;7778;48.792;9.260;2022-12-16T18:26:16;-0.70;99.90
15357;DHT22;7778;48.792;9.260;2022-12-16T18:29:20;-0.70;99.90
15357;DHT22;7778;48.792;9.260;2022-12-16T18:32:25;-0.80;99.90
15357;DHT22;7778;48.792;9.260;2022-12-16T18:35:28;-0.80;99.90
15357;DHT22;7778;48.792;9.260;2022-12-16T18:38:32;-0.80;99.90
15357;DHT22;7778;48.792;9.260;2022-12-16T18:41:40;-0.70;99.90
15357;DHT22;7778;48.792;9.260;2022-12-16T18:44:44;-0.80;99.90
15357;DHT22;7778;48.792;9.260;2022-12-16T18:47:49;-0.80;99.90
15357;DHT22;7778;48.792;9.260;2022-12-16T18:50:53;-0.70;99.90
15357;DHT22;7778;48.792;9.260;2022-12-16T18:53:57;-0.80;99.90
15357;DHT22;7778;48.792;9.260;2022-12-16T18:57:00;-0.80;99.90
15357;DHT22;7778;48.792;9.260;2022-12-16T19:00:05;-0.80;99.90
15357;DHT22;7778;48.792;9.260;2022-12-16T19:03:11;-0.80;99.90
15357;DHT22;7778;48.792;9.260;2022-12-16T19:06:15;-1.00;99.90
15357;DHT22;7778;48.792;9.260;2022-12-16T19:09:18;-1.10;99.90
15357;DHT22;7778;48.792;9.260;2022-12-16T19:12:22;-1.20;99.90
15357;DHT22;7778;48.792;9.260;2022-12-16T19:15:26;-1.10;99.90
15357;DHT22;7778;48.792;9.260;2022-12-16T19:18:30;-1.10;99.90
15357;DHT22;7778;48.792;9.260;2022-12-16T19:21:34;-1.10;99.90
15357;DHT22;7778;48.792;9.260;2022-12-16T19:24:38;-1.10;99.90
15357;DHT22;7778;48.792;9.260;2022-12-16T19:27:41;-1.10;99.90
15357;DHT22;7778;48.792;9.260;2022-12-16T19:30:53;-1.20;99.90
15357;DHT22;7778;48.792;9.260;2022-12-16T19:33:58;-1.30;99.90
15357;DHT22;7778;48.792;9.260;2022-12-16T19:37:01;-1.30;99.90
15357;DHT22;7778;48.792;9.260;2022-12-16T19:40:06;-1.30;99.90
15357;DHT22;7778;48.792;9.260;2022-12-16T19:43:10;-1.20;99.90